createdAt,value
2022-11-23T00:01:26.293Z,98058.94
2022-11-23T00:03:55.238Z,98065.19
2022-11-23T00:06:23.523Z,98064.22
2022-11-23T00:08:51.015Z,98066.03
2022-11-23T00:11:19.754Z,98062.66
2022-11-23T00:13:46.461Z,98057.31
2022-11-23T00:16:21.623Z,98055.63
2022-11-23T00:18:48.629Z,98055.63
2022-11-23T00:21:16.590Z,98060.00
2022-11-23T00:23:43.953Z,98057.44
2022-11-23T00:26:11.636Z,98061.03
2022-11-23T00:28:40.646Z,98056.59
2022-11-23T00:31:08.351Z,98060.13
2022-11-23T00:33:35.105Z,98061.88
2022-11-23T00:36:04.069Z,98062.00
2022-11-23T00:38:31.153Z,98065.56
2022-11-23T00:40:58.811Z,98063.75
2022-11-23T00:43:25.328Z,98062.91
2022-11-23T00:46:03.066Z,98055.94
2022-11-23T00:48:30.107Z,98057.75
2022-11-23T00:50:56.748Z,98057.84
2022-11-23T00:53:23.563Z,98062.25
2022-11-23T00:55:54.287Z,98057.03
2022-11-23T00:58:21.507Z,98057.94
2022-11-23T01:00:48.578Z,98060.56
2022-11-23T01:03:15.628Z,98056.19
2022-11-23T01:05:42.684Z,98057.84
2022-11-23T01:08:09.181Z,98067.47
2022-11-23T01:10:35.756Z,98064.06
2022-11-23T01:13:02.367Z,98056.13
2022-11-23T01:15:28.910Z,98055.34
2022-11-23T01:17:55.479Z,98063.34
2022-11-23T01:20:21.986Z,98065.09
2022-11-23T01:22:48.522Z,98067.84
2022-11-23T01:25:15.113Z,98060.88
2022-11-23T01:27:41.795Z,98057.31
2022-11-23T01:30:08.975Z,98066.94
2022-11-23T01:32:35.549Z,98062.56
2022-11-23T01:35:02.083Z,98062.63
2022-11-23T01:37:28.650Z,98069.72
2022-11-23T01:39:55.201Z,98063.59
2022-11-23T01:42:21.737Z,98067.13
2022-11-23T01:44:48.356Z,98057.53
2022-11-23T01:47:14.902Z,98058.47
2022-11-23T01:49:46.494Z,98055.88
2022-11-23T01:52:20.258Z,98054.25
2022-11-23T01:54:50.451Z,98049.94
2022-11-23T01:57:25.075Z,98046.53
2022-11-23T01:59:53.240Z,98059.00
2022-11-23T02:02:19.894Z,98049.44
2022-11-23T02:04:49.258Z,98052.25
2022-11-23T02:07:18.822Z,98050.63
2022-11-23T02:09:46.848Z,98054.25
2022-11-23T02:12:14.767Z,98057.81
2022-11-23T02:14:42.278Z,98061.47
2022-11-23T02:17:09.277Z,98066.88
2022-11-23T02:19:35.676Z,98063.44
2022-11-23T02:22:02.751Z,98060.91
2022-11-23T02:24:33.617Z,98061.88
2022-11-23T02:27:02.053Z,98056.56
2022-11-23T02:29:29.848Z,98063.56
2022-11-23T02:31:56.805Z,98066.09
2022-11-23T02:34:23.368Z,98065.19
2022-11-23T02:36:52.858Z,98071.38
2022-11-23T02:39:27.539Z,98069.63
2022-11-23T02:41:55.946Z,98069.69
2022-11-23T02:44:50.662Z,98068.84
2022-11-23T02:47:17.449Z,98075.03
2022-11-23T02:49:47.698Z,98068.84
2022-11-23T02:52:14.559Z,98075.88
2022-11-23T02:54:41.161Z,98086.38
2022-11-23T02:57:08.498Z,98091.66
2022-11-23T02:59:35.360Z,98081.16
2022-11-23T03:02:03.431Z,98083.00
2022-11-23T03:04:30.157Z,98089.22
2022-11-23T03:06:57.167Z,98086.66
2022-11-23T03:09:26.077Z,98099.00
2022-11-23T03:11:53.533Z,98095.47
2022-11-23T03:14:20.850Z,98101.63
2022-11-23T03:16:47.446Z,98096.22
2022-11-23T03:19:14.071Z,98099.66
2022-11-23T03:21:40.621Z,98103.97
2022-11-23T03:24:07.154Z,98108.19
2022-11-23T03:26:33.746Z,98109.88
2022-11-23T03:29:00.251Z,98103.66
2022-11-23T03:31:27.052Z,98104.53
2022-11-23T03:33:53.592Z,98099.31
2022-11-23T03:36:20.171Z,98103.66
2022-11-23T03:38:46.737Z,98105.44
2022-11-23T03:41:13.351Z,98104.53
2022-11-23T03:43:39.915Z,98101.00
2022-11-23T03:46:06.507Z,98109.88
2022-11-23T03:48:33.036Z,98103.66
2022-11-23T03:50:59.547Z,98108.97
2022-11-23T03:53:26.463Z,98102.91
2022-11-23T03:55:55.484Z,98102.06
2022-11-23T03:58:22.082Z,98100.31
2022-11-23T04:00:48.621Z,98105.59
2022-11-23T04:03:15.358Z,98096.00
2022-11-23T04:05:41.862Z,98094.19
2022-11-23T04:08:09.552Z,98094.19
2022-11-23T04:10:36.064Z,98097.72
2022-11-23T04:13:02.876Z,98103.81
2022-11-23T04:15:29.475Z,98101.19
2022-11-23T04:17:56.154Z,98100.25
2022-11-23T04:20:22.687Z,98101.94
2022-11-23T04:22:49.274Z,98102.75
2022-11-23T04:25:15.807Z,98109.81
2022-11-23T04:27:42.441Z,98113.41
2022-11-23T04:30:09.873Z,98106.34
2022-11-23T04:32:36.418Z,98113.41
2022-11-23T04:35:03.157Z,98104.59
2022-11-23T04:37:29.777Z,98102.84
2022-11-23T04:39:56.317Z,98109.88
2022-11-23T04:42:22.926Z,98112.53
2022-11-23T04:44:49.491Z,98109.03
2022-11-23T04:47:16.124Z,98099.41
2022-11-23T04:49:42.649Z,98109.88
2022-11-23T04:52:09.167Z,98103.81
2022-11-23T04:54:35.723Z,98112.53
2022-11-23T04:57:02.254Z,98110.72
2022-11-23T04:59:29.041Z,98107.06
2022-11-23T05:01:55.642Z,98112.41
2022-11-23T05:04:22.181Z,98104.59
2022-11-23T05:06:48.804Z,98106.41
2022-11-23T05:09:15.705Z,98108.19
2022-11-23T05:11:42.339Z,98094.09
2022-11-23T05:14:08.970Z,98101.19
2022-11-23T05:16:35.644Z,98105.66
2022-11-23T05:19:02.527Z,98096.88
2022-11-23T05:21:29.162Z,98103.97
2022-11-23T05:23:55.782Z,98100.53
2022-11-23T05:26:22.398Z,98107.63
2022-11-23T05:28:49.145Z,98107.63
2022-11-23T05:31:15.718Z,98105.94
2022-11-23T05:33:42.254Z,98111.22
2022-11-23T05:36:09.359Z,98112.16
2022-11-23T05:38:35.911Z,98119.22
2022-11-23T05:41:02.438Z,98111.31
2022-11-23T05:43:29.008Z,98122.78
2022-11-23T05:45:59.052Z,98118.44
2022-11-23T05:48:25.701Z,98113.25
2022-11-23T05:50:52.388Z,98120.28
2022-11-23T05:53:19.308Z,98115.00
2022-11-23T05:55:46.238Z,98114.22
2022-11-23T05:58:13.035Z,98118.59
2022-11-23T06:00:39.555Z,98118.53
2022-11-23T06:03:06.062Z,98118.59
2022-11-23T06:05:32.988Z,98118.59
2022-11-23T06:07:59.483Z,98122.88
2022-11-23T06:10:26.020Z,98118.44
2022-11-23T06:12:52.846Z,98120.16
2022-11-23T06:15:19.555Z,98122.78
2022-11-23T06:17:46.081Z,98122.72
2022-11-23T06:20:12.769Z,98120.97
2022-11-23T06:22:39.573Z,98133.34
2022-11-23T06:25:06.596Z,98128.06
2022-11-23T06:27:33.043Z,98135.97
2022-11-23T06:29:59.527Z,98140.34
2022-11-23T06:32:26.046Z,98133.97
2022-11-23T06:34:53.885Z,98138.38
2022-11-23T06:37:23.605Z,98140.97
2022-11-23T06:39:50.083Z,98140.06
2022-11-23T06:42:37.761Z,98147.97
2022-11-23T06:45:03.743Z,98147.97
2022-11-23T06:47:30.277Z,98137.41
2022-11-23T06:49:56.747Z,98140.94
2022-11-23T06:52:23.277Z,98146.19
2022-11-23T06:54:49.768Z,98153.25
2022-11-23T06:57:16.344Z,98149.63
2022-11-23T06:59:45.048Z,98151.34
2022-11-23T07:02:12.517Z,98146.06
2022-11-23T07:04:39.109Z,98159.28
2022-11-23T07:07:07.799Z,98158.31
2022-11-23T07:09:35.054Z,98160.06
2022-11-23T07:12:01.791Z,98161.78
2022-11-23T07:14:28.355Z,98173.19
2022-11-23T07:16:54.921Z,98165.16
2022-11-23T07:19:21.394Z,98172.19
2022-11-23T07:21:47.955Z,98163.34
2022-11-23T07:24:14.477Z,98169.38
2022-11-23T07:26:41.041Z,98168.47
2022-11-23T07:29:07.598Z,98168.53
2022-11-23T07:31:34.080Z,98168.47
2022-11-23T07:34:00.549Z,98160.53
2022-11-23T07:36:27.053Z,98169.28
2022-11-23T07:38:53.582Z,98168.25
2022-11-23T07:41:20.100Z,98162.91
2022-11-23T07:43:46.663Z,98170.84
2022-11-23T07:46:13.283Z,98169.03
2022-11-23T07:48:39.847Z,98171.63
2022-11-23T07:51:06.370Z,98176.03
2022-11-23T07:53:32.881Z,98178.69
2022-11-23T07:55:59.460Z,98180.41
2022-11-23T07:58:26.237Z,98181.31
2022-11-23T08:00:52.815Z,98177.81
2022-11-23T08:03:27.730Z,98176.97
2022-11-23T08:05:54.957Z,98178.72
2022-11-23T08:08:21.510Z,98175.28
2022-11-23T08:10:53.005Z,98182.28
2022-11-23T08:13:20.410Z,98170.84
2022-11-23T08:15:53.251Z,98177.94
2022-11-23T08:18:20.910Z,98177.03
2022-11-23T08:20:47.478Z,98166.41
2022-11-23T08:23:14.037Z,98171.69
2022-11-23T08:25:40.586Z,98175.19
2022-11-23T08:28:07.161Z,98171.59
2022-11-23T08:30:34.431Z,98172.47
2022-11-23T08:33:08.065Z,98162.63
2022-11-23T08:35:36.529Z,98164.28
2022-11-23T08:38:04.527Z,98164.97
2022-11-23T08:40:31.156Z,98170.09
2022-11-23T08:42:57.706Z,98161.97
2022-11-23T08:45:24.241Z,98160.13
2022-11-23T08:47:51.192Z,98173.28
2022-11-23T08:50:18.032Z,98173.22
2022-11-23T08:52:44.576Z,98172.25
2022-11-23T08:55:11.652Z,98179.25
2022-11-23T08:57:38.430Z,98180.06
2022-11-23T09:00:06.087Z,98181.72
2022-11-23T09:02:33.032Z,98176.28
2022-11-23T09:05:00.696Z,98180.44
2022-11-23T09:07:27.313Z,98178.47
2022-11-23T09:09:53.917Z,98186.22
2022-11-23T09:12:20.408Z,98183.28
2022-11-23T09:14:46.959Z,98195.28
2022-11-23T09:17:13.481Z,98187.09
2022-11-23T09:19:39.930Z,98189.38
2022-11-23T09:22:06.450Z,98186.38
2022-11-23T09:24:34.410Z,98190.38
2022-11-23T09:27:01.014Z,98187.38
2022-11-23T09:29:28.170Z,98180.91
2022-11-23T09:31:54.753Z,98176.97
2022-11-23T09:34:21.269Z,98179.22
2022-11-23T09:36:48.100Z,98185.06
2022-11-23T09:39:14.820Z,98176.00
2022-11-23T09:41:41.255Z,98173.81
2022-11-23T09:44:52.234Z,98177.03
2022-11-23T09:47:51.583Z,98177.44
2022-11-23T09:50:28.337Z,98175.31
2022-11-23T09:52:54.909Z,98178.56
2022-11-23T09:55:41.789Z,98171.91
2022-11-23T09:58:14.086Z,98174.25
2022-11-23T10:00:48.814Z,98172.19
2022-11-23T10:03:17.586Z,98170.97
2022-11-23T10:05:53.948Z,98168.81
2022-11-23T10:08:51.366Z,98168.34
2022-11-23T10:11:23.657Z,98172.44
2022-11-23T10:14:28.398Z,98164.88
2022-11-23T10:17:34.000Z,98163.59
2022-11-23T10:20:25.243Z,98163.16
2022-11-23T10:22:58.700Z,98157.47
2022-11-23T10:25:29.186Z,98152.47
2022-11-23T10:28:03.039Z,98149.31
2022-11-23T10:30:29.572Z,98149.78
2022-11-23T10:33:11.014Z,98152.91
2022-11-23T10:35:38.462Z,98151.56
2022-11-23T10:38:19.084Z,98146.91
2022-11-23T10:41:08.838Z,98141.91
2022-11-23T10:43:41.663Z,98140.41
2022-11-23T10:46:23.708Z,98136.09
2022-11-23T10:48:51.666Z,98139.78
2022-11-23T10:51:31.795Z,98135.75
2022-11-23T10:54:23.409Z,98136.84
2022-11-23T10:56:51.861Z,98134.34
2022-11-23T10:59:38.924Z,98129.56
2022-11-23T11:02:05.395Z,98130.91
2022-11-23T11:04:32.074Z,98127.00
2022-11-23T11:07:31.557Z,98136.03
2022-11-23T11:10:04.097Z,98134.06
2022-11-23T11:12:34.580Z,98138.88
2022-11-23T11:15:12.228Z,98133.06
2022-11-23T11:17:41.039Z,98133.63
2022-11-23T11:20:31.549Z,98130.56
2022-11-23T11:23:17.573Z,98125.22
2022-11-23T11:25:44.651Z,98128.50
2022-11-23T11:28:32.860Z,98129.31
2022-11-23T11:31:44.461Z,98123.00
2022-11-23T11:34:23.793Z,98124.69
2022-11-23T11:37:02.317Z,98121.00
2022-11-23T11:39:38.116Z,98121.22
2022-11-23T11:42:08.991Z,98123.81
2022-11-23T11:44:39.831Z,98119.97
2022-11-23T11:47:24.677Z,98124.28
2022-11-23T11:49:55.100Z,98119.03
2022-11-23T11:52:37.333Z,98121.13
2022-11-23T11:55:22.610Z,98119.50
2022-11-23T11:57:55.035Z,98125.09
2022-11-23T12:00:21.811Z,98121.31
2022-11-23T12:03:19.423Z,98120.97
2022-11-23T12:05:52.269Z,98109.47
2022-11-23T12:08:32.134Z,98118.25
2022-11-23T12:11:02.136Z,98123.66
2022-11-23T12:13:38.697Z,98114.25
2022-11-23T12:16:05.162Z,98121.88
2022-11-23T12:18:34.432Z,98119.53
2022-11-23T12:21:19.334Z,98115.47
2022-11-23T12:24:01.782Z,98122.63
2022-11-23T12:26:43.284Z,98120.88
2022-11-23T12:29:16.562Z,98117.41
2022-11-23T12:31:49.111Z,98115.69
2022-11-23T12:34:44.509Z,98114.00
2022-11-23T12:37:11.500Z,98106.22
2022-11-23T12:39:57.772Z,98108.72
2022-11-23T12:42:34.798Z,98120.19
2022-11-23T12:45:17.475Z,98114.06
2022-11-23T12:48:08.290Z,98110.75
2022-11-23T12:50:37.773Z,98101.91
2022-11-23T12:53:43.299Z,98109.81
2022-11-23T12:56:15.651Z,98112.63
2022-11-23T12:58:44.546Z,98106.31
2022-11-23T13:01:32.488Z,98112.63
2022-11-23T13:04:32.811Z,98116.28
2022-11-23T13:07:30.308Z,98117.75
2022-11-23T13:10:48.049Z,98113.44
2022-11-23T13:13:22.630Z,98111.31
2022-11-23T13:16:19.936Z,98112.50
2022-11-23T13:19:14.826Z,98118.88
2022-11-23T13:21:44.655Z,98119.94
2022-11-23T13:24:33.686Z,98123.63
2022-11-23T13:27:15.681Z,98119.50
2022-11-23T13:29:51.295Z,98123.22
2022-11-23T13:32:39.416Z,98125.97
2022-11-23T13:35:21.215Z,98122.69
2022-11-23T13:37:56.917Z,98128.94
2022-11-23T13:40:26.522Z,98129.88
2022-11-23T13:42:57.656Z,98130.19
2022-11-23T13:45:28.394Z,98128.69
2022-11-23T13:48:34.353Z,98135.19
2022-11-23T13:51:01.467Z,98130.19
2022-11-23T13:53:39.690Z,98126.91
2022-11-23T13:56:44.881Z,98134.25
2022-11-23T13:59:23.680Z,98135.47
2022-11-23T14:02:22.263Z,98129.34
2022-11-23T14:04:49.462Z,98134.88
2022-11-23T14:07:18.797Z,98136.09
2022-11-23T14:09:51.541Z,98133.69
2022-11-23T14:12:46.682Z,98137.47
2022-11-23T14:15:25.497Z,98128.91
2022-11-23T14:18:13.769Z,98132.66
2022-11-23T14:20:52.315Z,98137.41
2022-11-23T14:23:46.521Z,98139.34
2022-11-23T14:26:34.183Z,98137.97
2022-11-23T14:29:06.373Z,98137.66
2022-11-23T14:31:42.569Z,98143.28
2022-11-23T14:34:25.904Z,98146.13
2022-11-23T14:37:23.475Z,98147.31
2022-11-23T14:39:59.769Z,98139.59
2022-11-23T14:42:29.393Z,98141.66
2022-11-23T14:45:01.689Z,98139.19
2022-11-23T14:47:30.370Z,98138.59
2022-11-23T14:49:57.417Z,98145.06
2022-11-23T14:52:28.744Z,98142.66
2022-11-23T14:54:57.898Z,98145.66
2022-11-23T14:57:36.224Z,98143.28
2022-11-23T15:00:07.169Z,98140.09
2022-11-23T15:02:41.266Z,98137.78
2022-11-23T15:05:16.751Z,98141.47
2022-11-23T15:07:52.487Z,98147.28
2022-11-23T15:10:24.854Z,98152.09
2022-11-23T15:12:51.426Z,98146.16
2022-11-23T15:15:26.283Z,98142.09
2022-11-23T15:18:01.431Z,98146.91
2022-11-23T15:20:40.868Z,98135.69
2022-11-23T15:23:16.559Z,98151.09
2022-11-23T15:25:53.709Z,98154.81
2022-11-23T15:28:28.781Z,98156.78
2022-11-23T15:30:58.610Z,98154.44
2022-11-23T15:33:26.215Z,98151.09
2022-11-23T15:35:54.691Z,98162.78
2022-11-23T15:38:23.906Z,98159.53
2022-11-23T15:40:51.476Z,98166.88
2022-11-23T15:43:19.921Z,98153.91
2022-11-23T15:45:46.559Z,98159.44
2022-11-23T15:48:14.903Z,98158.69
2022-11-23T15:50:59.556Z,98164.22
2022-11-23T15:53:32.481Z,98166.44
2022-11-23T15:56:05.548Z,98170.06
2022-11-23T15:58:33.979Z,98166.72
2022-11-23T16:01:12.509Z,98183.53
2022-11-23T16:04:01.084Z,98183.66
2022-11-23T16:06:40.869Z,98180.41
2022-11-23T16:12:25.758Z,98186.00
2022-11-23T16:14:54.427Z,98184.44
2022-11-23T16:17:29.458Z,98183.72
2022-11-23T16:20:03.949Z,98184.69
2022-11-23T16:22:37.875Z,98195.38
2022-11-23T16:25:18.055Z,98192.88
2022-11-23T16:27:44.695Z,98198.34
2022-11-23T16:30:25.631Z,98194.91
2022-11-23T16:32:52.494Z,98199.44
2022-11-23T16:35:20.768Z,98190.59
2022-11-23T16:37:47.410Z,98188.88
2022-11-23T16:40:14.659Z,98188.88
2022-11-23T16:42:43.301Z,98191.50
2022-11-23T16:45:10.746Z,98186.19
2022-11-23T16:47:51.874Z,98192.47
2022-11-23T16:50:18.677Z,98194.22
2022-11-23T16:52:45.242Z,98189.91
2022-11-23T16:55:11.740Z,98194.47
2022-11-23T16:57:38.911Z,98192.78
2022-11-23T17:00:36.098Z,98193.69
2022-11-23T17:03:02.751Z,98187.56
2022-11-23T17:05:29.267Z,98196.47
2022-11-23T17:07:55.877Z,98183.31
2022-11-23T17:10:22.574Z,98189.44
2022-11-23T17:12:55.107Z,98178.84
2022-11-23T17:15:23.336Z,98181.44
2022-11-23T17:17:50.250Z,98186.78
2022-11-23T17:20:18.005Z,98183.31
2022-11-23T17:22:45.044Z,98180.66
2022-11-23T17:25:15.007Z,98173.72
2022-11-23T17:27:42.339Z,98182.59
2022-11-23T17:30:19.257Z,98188.84
2022-11-23T17:32:47.848Z,98178.25
2022-11-23T17:35:15.021Z,98179.16
2022-11-23T17:37:42.158Z,98175.66
2022-11-23T17:40:19.985Z,98186.25
2022-11-23T17:42:47.451Z,98175.66
2022-11-23T17:45:14.625Z,98180.91
2022-11-23T17:47:44.136Z,98189.69
2022-11-23T17:50:17.561Z,98185.22
2022-11-23T17:52:45.549Z,98184.38
2022-11-23T17:55:13.071Z,98195.75
2022-11-23T17:57:40.450Z,98194.00
2022-11-23T18:00:23.117Z,98190.38
2022-11-23T18:02:50.009Z,98189.56
2022-11-23T18:05:21.530Z,98197.44
2022-11-23T18:07:49.351Z,98197.50
2022-11-23T18:10:16.354Z,98198.41
2022-11-23T18:12:44.689Z,98201.13
2022-11-23T18:15:12.122Z,98199.50
2022-11-23T18:17:38.776Z,98207.44
2022-11-23T18:20:08.255Z,98209.31
2022-11-23T18:22:35.144Z,98205.81
2022-11-23T18:25:01.949Z,98207.63
2022-11-23T18:27:29.816Z,98205.94
2022-11-23T18:29:56.557Z,98205.22
2022-11-23T18:32:23.118Z,98203.59
2022-11-23T18:34:49.676Z,98207.16
2022-11-23T18:37:16.398Z,98214.25
2022-11-23T18:39:42.932Z,98215.22
2022-11-23T18:42:10.016Z,98218.81
2022-11-23T18:44:36.448Z,98225.03
2022-11-23T18:47:03.039Z,98214.53
2022-11-23T18:49:29.579Z,98211.13
2022-11-23T18:51:56.123Z,98215.56
2022-11-23T18:54:22.611Z,98213.94
2022-11-23T18:56:49.152Z,98214.00
2022-11-23T18:59:50.122Z,98209.69
2022-11-23T19:02:02.298Z,98207.13
2022-11-23T19:04:32.499Z,98213.38
2022-11-23T19:06:59.038Z,98221.44
2022-11-23T19:09:25.492Z,98220.59
2022-11-23T19:11:52.003Z,98232.19
2022-11-23T19:14:18.537Z,98230.50
2022-11-23T19:16:45.079Z,98227.06
2022-11-23T19:19:11.700Z,98224.53
2022-11-23T19:21:39.186Z,98228.97
2022-11-23T19:24:06.675Z,98230.75
2022-11-23T19:26:33.252Z,98222.91
2022-11-23T19:29:00.149Z,98231.69
2022-11-23T19:31:32.217Z,98234.38
2022-11-23T19:34:01.284Z,98228.16
2022-11-23T19:36:30.119Z,98225.59
2022-11-23T19:38:58.206Z,98231.75
2022-11-23T19:41:29.793Z,98243.22
2022-11-23T19:43:58.919Z,98244.13
2022-11-23T19:46:26.306Z,98239.78
2022-11-23T19:48:54.872Z,98237.16
2022-11-23T19:51:21.480Z,98239.78
2022-11-23T19:53:49.350Z,98238.88
2022-11-23T19:56:21.727Z,98239.69
2022-11-23T19:58:54.768Z,98239.69
2022-11-23T20:01:23.496Z,98240.56
2022-11-23T20:03:52.147Z,98239.72
2022-11-23T20:06:27.259Z,98242.47
2022-11-23T20:08:59.120Z,98242.59
2022-11-23T20:11:27.425Z,98244.16
2022-11-23T20:13:54.850Z,98243.59
2022-11-23T20:16:22.423Z,98250.84
2022-11-23T20:18:54.647Z,98254.44
2022-11-23T20:21:21.129Z,98250.09
2022-11-23T20:23:50.307Z,98256.28
2022-11-23T20:26:20.238Z,98257.31
2022-11-23T20:28:51.337Z,98262.66
2022-11-23T20:31:20.860Z,98260.06
2022-11-23T20:33:50.600Z,98260.06
2022-11-23T20:36:25.217Z,98265.31
2022-11-23T20:38:53.157Z,98264.41
2022-11-23T20:41:28.075Z,98262.66
2022-11-23T20:43:57.788Z,98264.34
2022-11-23T20:46:46.109Z,98260.75
2022-11-23T20:49:12.201Z,98260.81
2022-11-23T20:51:38.879Z,98266.06
2022-11-23T20:54:05.472Z,98258.97
2022-11-23T20:56:32.410Z,98259.88
2022-11-23T20:59:04.228Z,98263.38
2022-11-23T21:01:30.872Z,98265.16
2022-11-23T21:03:59.300Z,98269.50
2022-11-23T21:06:26.834Z,98271.34
2022-11-23T21:08:53.786Z,98269.63
2022-11-23T21:11:46.175Z,98278.44
2022-11-23T21:14:27.147Z,98288.16
2022-11-23T21:16:58.961Z,98289.09
2022-11-23T21:19:31.021Z,98291.88
2022-11-23T21:21:59.248Z,98299.88
2022-11-23T21:24:25.968Z,98297.31
2022-11-23T21:26:52.661Z,98297.38
2022-11-23T21:29:19.484Z,98305.41
2022-11-23T21:31:48.408Z,98309.88
2022-11-23T21:34:19.092Z,98308.22
2022-11-23T21:36:46.044Z,98300.38
2022-11-23T21:39:13.741Z,98315.44
2022-11-23T21:41:40.334Z,98316.38
2022-11-23T21:44:08.445Z,98315.63
2022-11-23T21:46:37.206Z,98321.94
2022-11-23T21:49:04.713Z,98314.16
2022-11-23T21:51:31.363Z,98325.69
2022-11-23T21:54:00.522Z,98328.44
2022-11-23T21:56:28.321Z,98325.88
2022-11-23T21:58:55.614Z,98326.84
2022-11-23T22:01:24.925Z,98326.03
2022-11-23T22:03:54.293Z,98328.75
2022-11-23T22:06:21.333Z,98336.72
2022-11-23T22:08:48.842Z,98328.88
2022-11-23T22:11:23.588Z,98325.47
2022-11-23T22:14:13.606Z,98332.63
2022-11-23T22:16:43.902Z,98332.66
2022-11-23T22:19:12.625Z,98337.13
2022-11-23T22:21:40.857Z,98344.22
2022-11-23T22:24:12.621Z,98345.16
2022-11-23T22:26:39.223Z,98353.16
2022-11-23T22:29:06.855Z,98343.53
2022-11-23T22:31:35.120Z,98348.81
2022-11-23T22:34:02.996Z,98353.34
2022-11-23T22:36:30.176Z,98356.03
2022-11-23T22:39:05.427Z,98367.53
2022-11-23T22:41:37.538Z,98364.94
2022-11-23T22:44:09.271Z,98373.88
2022-11-23T22:46:37.656Z,98368.66
2022-11-23T22:49:04.668Z,98367.81
2022-11-23T22:51:31.366Z,98365.28
2022-11-23T22:53:59.890Z,98371.53
2022-11-23T22:56:27.871Z,98376.91
2022-11-23T22:58:54.743Z,98372.59
2022-11-23T23:01:23.418Z,98373.50
2022-11-23T23:03:55.732Z,98377.97
2022-11-23T23:06:27.577Z,98392.94
2022-11-23T23:08:56.467Z,98385.97
2022-11-23T23:11:24.194Z,98386.88
2022-11-23T23:13:51.903Z,98393.97
2022-11-23T23:16:18.981Z,98388.72
2022-11-23T23:18:45.690Z,98397.53
2022-11-23T23:21:15.051Z,98397.59
2022-11-23T23:23:44.063Z,98388.84
2022-11-23T23:26:12.025Z,98386.28
2022-11-23T23:28:39.282Z,98390.69
2022-11-23T23:31:17.231Z,98393.31
2022-11-23T23:33:45.575Z,98402.09
2022-11-23T23:36:17.847Z,98404.75
2022-11-23T23:38:44.524Z,98401.28
2022-11-23T23:41:12.451Z,98400.41
2022-11-23T23:43:39.810Z,98396.94
2022-11-23T23:46:09.679Z,98411.88
2022-11-23T23:48:38.806Z,98408.41
2022-11-23T23:51:17.675Z,98400.56
2022-11-23T23:53:45.121Z,98407.63
2022-11-23T23:56:13.555Z,98405.06
2022-11-23T23:58:40.147Z,98404.13
